AirNav   Everest Fuels
 
 829 users online  

S50 Auburn Municipal Airport
Auburn, Washington, USA

GOING TO AUBURN?


FAA INFORMATION EFFECTIVE 16 JULY 2020

Location

FAA Identifier: S50
Lat/Long: 47-19-39.7000N 122-13-36.0000W
47-19.661667N 122-13.600000W
47.3276944,-122.2266667
(estimated)
Elevation: 63 ft. / 19.2 m (surveyed)
Variation: 18E (2005)
From city: 2 miles N of AUBURN, WA
Time zone: UTC -7 (UTC -8 during Standard Time)
Zip code: 98002

Airport Operations

Airport use: Open to the public
Activation date: 03/1970
Control tower: no
ARTCC: SEATTLE CENTER
FSS: SEATTLE FLIGHT SERVICE STATION
NOTAMs facility: SEA (NOTAM-D service available)
Attendance: MON-FRI 0800-1700
Wind indicator: lighted
Segmented circle: yes
Lights: ACTVT REIL RWYS 16 & 34; MIRL RWY 16/34 - CTAF. VASI RWY 16 & 34 OPR CONSLY.
Beacon: white-green (lighted land airport)
Operates sunset to sunrise.

Airport Communications

CTAF/UNICOM: 122.8
SEATTLE APPROACH: 123.85 [0530-0000]
SEATTLE DEPARTURE: 123.85 [0530-0000]
CLEARANCE DELIVERY: 123.85
WX ASOS at SEA (8 nm NW): PHONE 206-214-2592
WX ASOS at RNT (10 nm N): 126.95 (425-255-6080)
WX ASOS at BFI (13 nm N): PHONE 206-658-6435
WX AWOS-3 at PLU (14 nm S): 128.575 (253-848-2748)
WX ASOS at TIW (15 nm W): 124.05 (253-858-6507)
WX ASOS at TCM (15 nm SW): 342.3 (253-982-3434)

Nearby radio navigation aids

VOR radial/distance  VOR name  Freq  Var
SEAr133/7.3SEATTLE VORTAC116.8019E
TCMr028/14.8MCCHORD VORTAC109.6015E
OLMr033/34.9OLYMPIA VORTAC113.4019E
PAEr157/35.6PAINE VOR/DME110.6020E

Airport Services

Fuel available: 100LL
FUEL 24 HRS - CREDIT CARD SELF SERVICE.
Parking: hangars and tiedowns
Airframe service: MAJOR
Powerplant service: MAJOR
Bottled oxygen: LOW
Bulk oxygen: LOW

Runway Information

Runway 16/34

Dimensions: 3400 x 75 ft. / 1036 x 23 m
Surface: asphalt, in good condition
Weight bearing capacity: 
Single wheel: 12.5
Runway edge lights: medium intensity
RUNWAY 16  RUNWAY 34
Latitude: 47-19.940475N47-19.381248N
Longitude: 122-13.602237W122-13.596288W
Elevation: 56.5 ft.62.9 ft.
Traffic pattern: rightleft
Runway heading: 162 magnetic, 180 true342 magnetic, 360 true
Markings: basic, in good conditionbasic, in good condition
Visual slope indicator: 4-box VASI on right (4.50 degrees glide path)4-box VASI on left (4.00 degrees glide path)
Runway end identifier lights: yesyes
Touchdown point: yes, no lightsyes, no lights
Obstructions: 25 ft. bldg, lighted, 700 ft. from runway, 88 ft. right of centerline, 20:1 slope to clear
RWY 16 E-W HIGH VOLTAGE TSMN LINE, 80' AGL LCTD 1804' N OF RWY 16 THR AT 20:1.
18 ft. other, 442 ft. from runway, 13:1 slope to clear
RWY 34 CTLG OBS PARKING LOT LIGHTS.

Airport Ownership and Management from official FAA records

Ownership: Publicly-owned
Owner: CITY OF AUBURN
25 WEST MAIN STREET
AUBURN, WA 98001
Phone (253) 931-3010
Manager: TIM MENSONIDES
2143 E ST. NE, SUITE #1
AUBURN, WA 98002
Phone (253) 333-6821

Airport Operational Statistics

Aircraft based on the field: 267
Single engine airplanes: 243
Multi engine airplanes: 15
Helicopters: 7
Gliders airplanes: 2
    
Aircraft operations: avg 450/day *
60% local general aviation
36% transient general aviation
4% air taxi
<1% military
* for 12-month period ending 31 December 2016

Additional Remarks

ULTRALIGHTS PROHIBITED.
PLAN APCHS AND DEPS TO AVOID EXTREMELY NOISE SENSITIVE RESIDENTIAL AREA E OF THE ARPT.
FOR CD CTC SEATTLE APCH AT 206-214-4723.
BE ALERT, WILDLIFE ON AND INVOF ARPT, BIRDS PRSNT DAWN AND DUSK, WINT WX OPS AND RPT MON-FRI 0800-1700.
CALM WND RWY: 34
NO LOITERING ON RWY WHEN 2 OR MORE ACFT ARE PRSNT IN THE TFC PAT.

Instrument Procedures

NOTE: All procedures below are presented as PDF files. If you need a reader for these files, you should download the free Adobe Reader.

NOT FOR NAVIGATION. Please procure official charts for flight.
FAA instrument procedures published for use from 16 July 2020 at 0901Z to 13 August 2020 at 0900Z.

 
IAPs - Instrument Approach Procedures
RNAV (GPS)-A **CHANGED**   download (266KB)
 
BLAKO ONE (OBSTACLE) (RNAV)   download (179KB)
NOTE: Special Take-Off Minimums/Departure Procedures apply   download (339KB)

Other nearby airports with instrument procedures:

KSEA - Seattle-Tacoma International Airport (8 nm NW)
KRNT - Renton Municipal Airport (10 nm N)
KBFI - Boeing Field/King County International Airport (13 nm N)
KPLU - Pierce County Airport - Thun Field (14 nm S)
KTIW - Tacoma Narrows Airport (15 nm W)
KTCM - McChord Field Airport (Joint Base Lewis-McChord) (15 nm SW)
 
Loc | Ops | Rwys | IFR | FBO | Links
Com | Nav | Svcs | Stats | Notes
Area around S50 (Auburn Municipal Airport)
 
Road maps at: MapQuest Bing Google
 
Aerial photo
WARNING: Photo may not be current or correct
Aerial photo of S50 (Auburn Municipal Airport)
Photo by Bruce Shull
Photo taken 02-Jun-2017
looking north.

Do you have a better or more recent aerial photo of Auburn Municipal Airport that you would like to share? If so, please send us your photo.

 
Sectional chart

 
Airport diagram
CAUTION: Diagram may not be current
Diagram of S50 (Auburn Municipal Airport)
 
Airport distance calculator
Flying to Auburn Municipal Airport? Find the distance to fly.

From to S50

Sunrise and sunset
Times for 08-Aug-2020
 Local
(UTC-7)
 Zulu
(UTC)
Morning civil twilight05:2412:24
Sunrise05:5912:59
Sunset20:3003:30
Evening civil twilight21:0504:05

Current date and time
Zulu (UTC)  09-Aug-2020 03:07:02
Local (UTC-7)  08-Aug-2020 20:07:02
 
METAR
KSEA 
8nm NW 
090253Z 35008KT 10SM FEW030 BKN055 18/09 A3021 RMK AO2 SLP236 T01780094 56004
KRNT 
10nm N 
090253Z 36005KT 10SM SCT055 19/09 A3020 RMK AO2 SLP231 T01890089 56005
KPLU 
14nm S 
090255Z AUTO 00000KT 10SM BKN070 19/13 A3020 RMK AO2
KBFI 
14nm N 
090253Z VRB03KT 10SM BKN055 BKN070 19/09 A3020 RMK AO2 SLP226 T01890089 56004
KTIW 
15nm W 
090253Z AUTO 36008KT 10SM OVC070 17/09 A3021 RMK AO2 SLP230 T01670094 55001
KTCM 
16nm SW 
090258Z AUTO 03007KT 10SM OVC070 19/09 A3020 RMK AO2 SLP230 T01870089 55002 $
TAF
KSEA 
8nm NW 
090209Z 0902/1006 35010KT P6SM BKN050 FM090600 03006KT P6SM SCT050 FM092000 35008KT P6SM SCT250
KBFI 
14nm N 
082104Z 0821/0918 29005KT P6SM BKN020 OVC040 FM082200 31007KT P6SM SCT020 OVC030 FM090000 31008KT P6SM BKN050 FM090500 34005KT P6SM FEW250
KTCM 
16nm SW 
082100Z 0821/1003 VRB06KT 9999 BKN025 QNH3014INS BECMG 0909/0910 VRB04KT 9999 SCT040 BKN060 QNH3021INS BECMG 0915/0916 02012G18KT 9999 FEW020 SCT040 QNH3025INS TX23/0900Z TN13/0912Z
NOTAMs
Click for the latest NOTAMs
NOTAMs are issued by the DoD/FAA and will open in a separate window not controlled by AirNav.

 

 
 

FBO, Fuel Providers, and Aircraft Ground Support

  
 Business Name 
 
 Contact 
 
 Services / Description 
 
Fuel Prices
 
Comments
  
 Cascade Helicopter Services
206-767-5290
[web site]
[email]
Cascade Helicopter Services is a comprehensive helicopter maintenance center, avionics shop, and FAA Certified Repair Station.
 
FAA-Approved Repair Station   Wireless Internet Access (WiFi)  
 
More info about Cascade Helicopter Services
independent
Jet A
FS $3.99 
 Updated 22-Apr-2020
 
   write
Auburn Airport Administration 253-333-6821
360-358-2565
[web site]
[email]
Airport management, Aviation fuel, Aircraft parking (ramp or tiedown), Hangar leasing / sales, Pilot school (FAR Part 141), Flight training, ...

More info about Auburn Airport Administration
Phillips 66
100LL
SS $4.50 
 Updated 06-Aug-2020
 
   write
FS=Full service
SS=Self service
Update Fuel Prices
 

Would you like to see your business listed on this page?

 If your business provides an interesting product or service to pilots, flight crews, aircraft, or users of the Auburn Municipal Airport, you should consider listing it here.  To start the listing process, click on the button below
 
Add a business
 

Other Pages about Auburn Municipal Airport

auburnmunicipalairport.com
 
Update a link
 
Copyright © AirNav, LLC. All rights reserved. Privacy Policy  Contact